FranceFixed distance
La Grande Course des Templiers
28 Oct2012
Distance
72km
Finishers
2,0061,858 men148 women
Winning time
6:10:35h
Median pace
6.23km/h
Pace distribution
2,006 finishers · 4.66–11.66 km/h · mean 6.48
Every finisher ran the same 72 km course, so these paces are directly comparable.
Histogram of finisher pace. 2,006 finishers ranged from 4.66 to 11.66 kilometres per hour, with a mean of 6.48 and a median of 6.23. The busiest band is 5.5 to 6.0 kilometres per hour, with 431 finishers.
Results
Ranks 1,551–1,600 of 2,006
| Rank | Runner | Time | Pace | Cat. | Placing |
|---|---|---|---|---|---|
| 1551 | Vacher, NicolasFranceMan Intertechnique | 12:54:29h | 5.58 | M40 | 1463rd M · 321st M40 |
| 1552 | Tissidre, JeromeFranceMan | 12:54:33h | 5.58 | M23 | 1464th M · 375th M23 |
| 1553 | Batard, WillyFranceMan | 12:54:45h | 5.58 | M23 | 1465th M · 376th M23 |
| 1554 | Agniel, ChristelFranceWoman | 12:55:07h | 5.57 | W35 | 89th F · 22nd W35 |
| 1555 | Milesi, AlainFranceMan | 12:55:07h | 5.57 | M45 | 1466th M · 218th M45 |
| 1556 | Postel, PascalFranceMan | 12:55:07h | 5.57 | M40 | 1466th M · 322nd M40 |
| 1557 | Molinier, SebastienFranceMan | 12:55:27h | 5.57 | M23 | 1468th M · 377th M23 |
| 1558 | Vincent, AlexandreFranceMan As Flexi-France | 12:55:54h | 5.57 | M40 | 1469th M · 323rd M40 |
| 1559 | Desgrand, PhilippeFranceMan | 12:55:59h | 5.57 | M40 | 1470th M · 324th M40 |
| 1560 | Thiriet, Jean-BernardFranceMan Ac Outreau | 12:56:28h | 5.56 | M45 | 1471st M · 219th M45 |
| 1561 | Dubois, Jean-PhilippeFranceMan Ac Outreau | 12:56:29h | 5.56 | M35 | 1472nd M · 368th M35 |
| 1562 | Persello, LaurentFranceMan | 12:56:37h | 5.56 | M40 | 1473rd M · 325th M40 |
| 1563 | Troussicot, RegisFranceMan | 12:57:03h | 5.56 | M40 | 1474th M · 326th M40 |
| 1564 | Francoise, LucFranceMan | 12:57:03h | 5.56 | M50 | 1474th M · 118th M50 |
| 1565 | Rougeas, Jean-NicolasFranceMan Sc Chateaurenard | 12:57:07h | 5.56 | M23 | 1476th M · 378th M23 |
| 1566 | Peyric, YannFranceMan | 12:57:07h | 5.56 | M35 | 1476th M · 369th M35 |
| 1567 | Etienne, FredericFranceMan Triathl'Aix | 12:57:08h | 5.56 | M45 | 1478th M · 220th M45 |
| 1568 | Troallic, StephaneFranceMan Gambas Trail | 12:57:09h | 5.56 | M35 | 1479th M · 370th M35 |
| 1569 | Hamon, GregoryFranceMan Gap Hautes Alpes Athle... | 12:57:18h | 5.56 | M23 | 1480th M · 379th M23 |
| 1570 | Messaz, HerveFranceMan | 12:57:27h | 5.56 | M45 | 1481st M · 221st M45 |
| 1571 | Robbiani, EricFranceMan | 12:57:28h | 5.56 | M50 | 1482nd M · 119th M50 |
| 1572 | Heraudeau, FabriceFranceMan Al Bouguenais | 12:57:44h | 5.55 | M35 | 1483rd M · 371st M35 |
| 1573 | Thouzeau, GerardFranceMan | 12:58:03h | 5.55 | M50 | 1484th M · 120th M50 |
| 1574 | Salin, ClaudineFranceWoman | 12:58:42h | 5.55 | W45 | 90th F · 14th W45 |
| 1575 | Modin, LaurenceFranceWoman | 12:58:43h | 5.55 | W45 | 91st F · 15th W45 |
| 1576 | Banchereau, FabriceFranceMan Ac La Chapelle/Erdre | 12:58:43h | 5.55 | M35 | 1485th M · 372nd M35 |
| 1577 | Carquille, Jean-MichelFranceMan | 12:58:43h | 5.55 | M40 | 1485th M · 327th M40 |
| 1578 | Morel, LaurentFranceMan Orient'Express 42 | 12:58:44h | 5.55 | M35 | 1487th M · 373rd M35 |
| 1579 | Ameline, VincentFranceMan | 12:58:44h | 5.55 | M40 | 1487th M · 328th M40 |
| 1580 | Bregou, EricFranceMan | 12:58:52h | 5.55 | M40 | 1489th M · 329th M40 |
| 1581 | Chiron, FrancoiseFranceWoman | 12:58:52h | 5.55 | W40 | 92nd F · 26th W40 |
| 1582 | Menage, EricFranceMan Eric Menage | 12:59:10h | 5.54 | M35 | 1490th M · 374th M35 |
| 1583 | Roure, LaurentFranceMan As Romagnat | 12:59:12h | 5.54 | M35 | 1491st M · 375th M35 |
| 1584 | Delacourte, YvanFranceMan | 12:59:16h | 5.54 | M40 | 1492nd M · 330th M40 |
| 1585 | Parret, VeroniqueFranceWoman As Aix-Les-Bains | 12:59:27h | 5.54 | W45 | 93rd F · 16th W45 |
| 1586 | Parret, ChristopheFranceMan As Aix-Les-Bains | 12:59:28h | 5.54 | M40 | 1493rd M · 331st M40 |
| 1587 | Alliaume, VeroniqueFranceWoman | 12:59:30h | 5.54 | W40 | 94th F · 27th W40 |
| 1588 | Gautier, PatrickFranceMan | 12:59:33h | 5.54 | M45 | 1494th M · 222nd M45 |
| 1589 | Jegu, CorentinFranceMan Oc Gif Sur Yvette | 12:59:41h | 5.54 | M23 | 1495th M · 380th M23 |
| 1590 | Touchard, ThierryFranceMan | 12:59:42h | 5.54 | M50 | 1496th M · 121st M50 |
| 1591 | Prodhomme, ThierryFranceMan | 12:59:42h | 5.54 | M45 | 1496th M · 223rd M45 |
| 1592 | Delmotte, ThierryFranceMan | 12:59:43h | 5.54 | M45 | 1498th M · 224th M45 |
| 1593 | de Noblet, FabriceFranceMan Ua Versailles | 12:59:44h | 5.54 | M50 | 1499th M · 122nd M50 |
| 1594 | Meignan, QuentinFranceMan Us Creteil / Bspp 17 | 12:59:48h | 5.54 | M23 | 1500th M · 381st M23 |
| 1595 | Soury, PatrickFranceMan | 12:59:56h | 5.54 | M50 | 1501st M · 123rd M50 |
| 1596 | Brayczewski, VladimirFranceMan | 12:59:56h | 5.54 | M45 | 1501st M · 225th M45 |
| 1597 | Riviere, JoelFranceMan | 12:59:57h | 5.54 | M45 | 1503rd M · 226th M45 |
| 1598 | Domitile, SandroFranceMan | 12:59:58h | 5.54 | M35 | 1504th M · 376th M35 |
| 1599 | Garnier, JeromeFranceMan La Berrichonne Athletisme | 12:59:58h | 5.54 | M45 | 1504th M · 227th M45 |
| 1600 | Laurent, PhilippeFranceMan | 13:00:00h | 5.54 | M45 | 1506th M · 228th M45 |
- 1551Vacher, NicolasFranceManIntertechnique1463rd M · 321st M40Time12:54:29hPace5.58Cat.M40
- 1552Tissidre, JeromeFranceMan1464th M · 375th M23Time12:54:33hPace5.58Cat.M23
- 1553Batard, WillyFranceMan1465th M · 376th M23Time12:54:45hPace5.58Cat.M23
- 1554Agniel, ChristelFranceWoman89th F · 22nd W35Time12:55:07hPace5.57Cat.W35
- 1555Milesi, AlainFranceMan1466th M · 218th M45Time12:55:07hPace5.57Cat.M45
- 1556Postel, PascalFranceMan1466th M · 322nd M40Time12:55:07hPace5.57Cat.M40
- 1557Molinier, SebastienFranceMan1468th M · 377th M23Time12:55:27hPace5.57Cat.M23
- 1558Vincent, AlexandreFranceManAs Flexi-France1469th M · 323rd M40Time12:55:54hPace5.57Cat.M40
- 1559Desgrand, PhilippeFranceMan1470th M · 324th M40Time12:55:59hPace5.57Cat.M40
- 1560Thiriet, Jean-BernardFranceManAc Outreau1471st M · 219th M45Time12:56:28hPace5.56Cat.M45
- 1561Dubois, Jean-PhilippeFranceManAc Outreau1472nd M · 368th M35Time12:56:29hPace5.56Cat.M35
- 1562Persello, LaurentFranceMan1473rd M · 325th M40Time12:56:37hPace5.56Cat.M40
- 1563Troussicot, RegisFranceMan1474th M · 326th M40Time12:57:03hPace5.56Cat.M40
- 1564Francoise, LucFranceMan1474th M · 118th M50Time12:57:03hPace5.56Cat.M50
- 1565Rougeas, Jean-NicolasFranceManSc Chateaurenard1476th M · 378th M23Time12:57:07hPace5.56Cat.M23
- 1566Peyric, YannFranceMan1476th M · 369th M35Time12:57:07hPace5.56Cat.M35
- 1567Etienne, FredericFranceManTriathl'Aix1478th M · 220th M45Time12:57:08hPace5.56Cat.M45
- 1568Troallic, StephaneFranceManGambas Trail1479th M · 370th M35Time12:57:09hPace5.56Cat.M35
- 1569Hamon, GregoryFranceManGap Hautes Alpes Athle...1480th M · 379th M23Time12:57:18hPace5.56Cat.M23
- 1570Messaz, HerveFranceMan1481st M · 221st M45Time12:57:27hPace5.56Cat.M45
- 1571Robbiani, EricFranceMan1482nd M · 119th M50Time12:57:28hPace5.56Cat.M50
- 1572Heraudeau, FabriceFranceManAl Bouguenais1483rd M · 371st M35Time12:57:44hPace5.55Cat.M35
- 1573Thouzeau, GerardFranceMan1484th M · 120th M50Time12:58:03hPace5.55Cat.M50
- 1574Salin, ClaudineFranceWoman90th F · 14th W45Time12:58:42hPace5.55Cat.W45
- 1575Modin, LaurenceFranceWoman91st F · 15th W45Time12:58:43hPace5.55Cat.W45
- 1576Banchereau, FabriceFranceManAc La Chapelle/Erdre1485th M · 372nd M35Time12:58:43hPace5.55Cat.M35
- 1577Carquille, Jean-MichelFranceMan1485th M · 327th M40Time12:58:43hPace5.55Cat.M40
- 1578Morel, LaurentFranceManOrient'Express 421487th M · 373rd M35Time12:58:44hPace5.55Cat.M35
- 1579Ameline, VincentFranceMan1487th M · 328th M40Time12:58:44hPace5.55Cat.M40
- 1580Bregou, EricFranceMan1489th M · 329th M40Time12:58:52hPace5.55Cat.M40
- 1581Chiron, FrancoiseFranceWoman92nd F · 26th W40Time12:58:52hPace5.55Cat.W40
- 1582Menage, EricFranceManEric Menage1490th M · 374th M35Time12:59:10hPace5.54Cat.M35
- 1583Roure, LaurentFranceManAs Romagnat1491st M · 375th M35Time12:59:12hPace5.54Cat.M35
- 1584Delacourte, YvanFranceMan1492nd M · 330th M40Time12:59:16hPace5.54Cat.M40
- 1585Parret, VeroniqueFranceWomanAs Aix-Les-Bains93rd F · 16th W45Time12:59:27hPace5.54Cat.W45
- 1586Parret, ChristopheFranceManAs Aix-Les-Bains1493rd M · 331st M40Time12:59:28hPace5.54Cat.M40
- 1587Alliaume, VeroniqueFranceWoman94th F · 27th W40Time12:59:30hPace5.54Cat.W40
- 1588Gautier, PatrickFranceMan1494th M · 222nd M45Time12:59:33hPace5.54Cat.M45
- 1589Jegu, CorentinFranceManOc Gif Sur Yvette1495th M · 380th M23Time12:59:41hPace5.54Cat.M23
- 1590Touchard, ThierryFranceMan1496th M · 121st M50Time12:59:42hPace5.54Cat.M50
- 1591Prodhomme, ThierryFranceMan1496th M · 223rd M45Time12:59:42hPace5.54Cat.M45
- 1592Delmotte, ThierryFranceMan1498th M · 224th M45Time12:59:43hPace5.54Cat.M45
- 1593de Noblet, FabriceFranceManUa Versailles1499th M · 122nd M50Time12:59:44hPace5.54Cat.M50
- 1594Meignan, QuentinFranceManUs Creteil / Bspp 171500th M · 381st M23Time12:59:48hPace5.54Cat.M23
- 1595Soury, PatrickFranceMan1501st M · 123rd M50Time12:59:56hPace5.54Cat.M50
- 1596Brayczewski, VladimirFranceMan1501st M · 225th M45Time12:59:56hPace5.54Cat.M45
- 1597Riviere, JoelFranceMan1503rd M · 226th M45Time12:59:57hPace5.54Cat.M45
- 1598Domitile, SandroFranceMan1504th M · 376th M35Time12:59:58hPace5.54Cat.M35
- 1599Garnier, JeromeFranceManLa Berrichonne Athletisme1504th M · 227th M45Time12:59:58hPace5.54Cat.M45
- 1600Laurent, PhilippeFranceMan1506th M · 228th M45Time13:00:00hPace5.54Cat.M45
Showing ranks 1,551–1,600 of 2,006